KBIF

Biggs AAF (Fort Bliss) Airport

Fort Bliss/El Paso/, Texas, USA
METAR KBIF 180658Z AUTO 05004KT 10SM FEW210 10/09 A3010 RMK AO2 SLP159 T01040086 401540081
Observed Flight Rules
Feb-18 @ 06:58 UTC (18 minutes ago) Visual Flight Rules
Wind Visibility Clouds
50° at 4 knots 10 miles
  • Few at 21,000' AGL
Temperatures Readings
Current 10°C / 50°F
Dewpoint 9°C / 48°F
Humidity 94%
Altimeter 30.1" Hg
Pressure 1015.9 hPa
Elevation 1203
METAR KBIF 180658Z AUTO 05004KT 10SM FEW210 10/09 A3010 RMK AO2 SLP159 T01040086 401540081
Observed Flight Rules
Feb-18 @ 06:58 UTC
(18 minutes ago)
VFR
Wind Visibility
50° at 4 knots 10 miles
Clouds
  • Few at 21,000' AGL
Temperature Dewpoint
10°C / 50°F 9°C / 48°F
Humidity Altimeter Pressure
94% 30.1" Hg 1015.9 hPa